Tuesday, January 23, 2018, 6:24 AM CST
Back to Local

KHYS, Hays, Hays Regional Airport

Location: Hays, KS, United States Lat: 38.85
Local Time: 6:24 AM CST (12:24 GMT) Lon: -99.267
Time Zone: US/Central Elev: 1998 ft

Show me the last for .
Show Decoded

2018-01-23 05:56 METAR KHYS 231156Z AUTO 33008KT 10SM CLR M06/M09 A3014 RMK AO2 SLP229 7////
                 T10611094 11028 21061 53009 FZRANO =
2018-01-23 04:56 METAR KHYS 231056Z AUTO 32009KT 10SM CLR M06/M09 A3013 RMK AO2 SLP223 T10561089
                 FZRANO =
2018-01-23 03:56 METAR KHYS 230956Z AUTO 28006KT 10SM CLR M06/M09 A3012 RMK AO2 SLP219 T10561089
                 FZRANO =
2018-01-23 02:56 METAR KHYS 230856Z AUTO 30010KT 10SM CLR M05/M08 A3011 RMK AO2 SLP216 T10501083
                 51012 FZRANO =
2018-01-23 01:56 METAR KHYS 230756Z AUTO 29008KT 10SM CLR M06/M08 A3010 RMK AO2 SLP214 T10561083
                 FZRANO =
2018-01-23 00:56 METAR KHYS 230656Z AUTO 27010KT 10SM CLR M05/M08 A3010 RMK AO2 SLP214 T10501083
                 FZRANO =
2018-01-22 23:56 METAR KHYS 230556Z AUTO 31011KT 10SM CLR M03/M07 A3007 RMK AO2 SLP203 T10331072
                 10011 21033 400331033 51014 FZRANO =
2018-01-22 22:56 METAR KHYS 230456Z AUTO 30012KT 10SM CLR M03/M07 A3006 RMK AO2 SLP199 T10331067
                 FZRANO =
2018-01-22 21:56 METAR KHYS 230356Z AUTO 30011KT 10SM CLR M03/M06 A3005 RMK AO2 SLP194 T10281061
                 FZRANO =
2018-01-22 20:56 METAR KHYS 230256Z AUTO 30013KT 10SM CLR M02/M06 A3003 RMK AO2 SLP188 T10171056
                 51027 FZRANO =
2018-01-22 19:56 METAR KHYS 230156Z AUTO 31018G21KT 10SM CLR M01/M05 A3000 RMK AO2 SLPNO
                 T10061050 FZRANO =
2018-01-22 18:56 METAR KHYS 230056Z AUTO 31015KT 10SM CLR 01/M05 A2998 RMK AO2 SLP170 T00061050
                 FZRANO =
2018-01-22 17:56 METAR KHYS 222356Z AUTO 32018G25KT 10SM CLR 02/M05 A2994 RMK AO2 PK WND
                 32027/2313 SLP156 60000 T00171050 10033 20006 53036 FZRANO =
2018-01-22 16:56 METAR KHYS 222256Z AUTO 32021G26KT 10SM CLR 03/M04 A2992 RMK AO2 PK WND
                 32032/2213 SLP146 T00281044 =
2018-01-22 15:56 METAR KHYS 222156Z AUTO 32027G33KT 10SM CLR 03/M04 A2986 RMK AO2 PK WND
                 30035/2127 SLP125 T00281039 =
2018-01-22 14:56 METAR KHYS 222056Z AUTO 32024G31KT 10SM FEW100 03/M03 A2983 RMK AO2 PK WND
                 32036/1959 SLP117 60000 T00281033 53009 =
2018-01-22 13:56 METAR KHYS 221956Z AUTO 32026G35KT 10SM BKN070 03/M03 A2979 RMK AO2 PK WND
                 31036/1923 SLP101 T00281028 TSNO =
2018-01-22 12:56 METAR KHYS 221856Z AUTO 32024G31KT 10SM SCT045 OVC060 02/M03 A2978 RMK AO2 PK
                 WND 30034/1816 UPE1757RAB1757E12 SLP100 P0000 T00171028 FZRANO =
2018-01-22 12:05 METAR KHYS 221805Z AUTO 31024G34KT 10SM -RA SCT012 SCT036 OVC045 01/M02 A2980
                 RMK AO2 PK WND 31034/1800 UPE1757RAB1757 P0000 FZRANO =
2018-01-22 11:56 METAR KHYS 221756Z AUTO 32025G34KT 10SM UP BKN014 OVC040 01/M02 A2981 RMK AO2 PK
                 WND 33038/1722 UPB32E35B52SNE32B35E52 SLP109 P0000 6//// T00061022 51039 FZRANO
                 =
2018-01-22 11:47 METAR KHYS 221747Z AUTO 32026G35KT 3SM -SN BR OVC012 00/M02 A2981 RMK AO2 PK WND
                 33038/1722 UPB32E35SNE32B35 P0000 FZRANO =
2018-01-22 10:56 METAR KHYS 221656Z AUTO 32024G35KT 1 1/4SM -SN BR OVC012 01/M01 A2978 RMK AO2 PK
                 WND 33038/1642 SLP101 P0001 T00061011 FZRANO =
2018-01-22 10:40 METAR KHYS 221640Z AUTO 32028G35KT 1SM -SN BR OVC012 01/M02 A2977 RMK AO2 PK WND
                 32037/1630 P0001 FZRANO =
2018-01-22 10:28 METAR KHYS 221628Z AUTO 32026G33KT 3/4SM -SN BR OVC012 00/M01 A2976 RMK AO2 PK
                 WND 32035/1618 VIS 1/2V1 1/4 P0001 FZRANO =
2018-01-22 10:17 METAR KHYS 221617Z AUTO 32024G33KT 1SM -SN BR OVC010 00/M01 A2975 RMK AO2 PK WND
                 32035/1604 P0001 FZRANO =
2018-01-22 10:07 METAR KHYS 221607Z AUTO 32027G35KT 3/4SM -SN BR OVC008 00/M01 A2974 RMK AO2 PK
                 WND 32035/1604 CIG 007V013 P0001 FZRANO =
2018-01-22 09:56 METAR KHYS 221556Z AUTO 33028G35KT 1/2SM -SN FG OVC008 00/M01 A2974 RMK AO2 PK
                 WND 33038/1506 CIG 006V012 SLP086 P0000 T00001011 FZRANO =
2018-01-22 09:08 METAR KHYS 221508Z AUTO 33029G38KT 1/2SM SN FZFG BKN008 OVC014 M01/M01 A2969 RMK
                 AO2 PK WND 33038/1506 CIG 006V011 P0000 FZRANO =
2018-01-22 08:56 METAR KHYS 221456Z AUTO 33030G40KT 1/2SM SN FG BKN010 OVC014 00/M01 A2968 RMK
                 AO2 PK WND 33040/1453 SNB03 CIG 007V012 SLP066 6//// T00001011 FZRANO =
2018-01-22 08:37 METAR KHYS 221437Z AUTO 33028G39KT 1/2SM -SN FG BKN010 OVC015 00/M01 A2967 RMK
                 AO2 PK WND 32039/1432 SNB03 CIG 005V012 FZRANO =
2018-01-22 08:15 METAR KHYS 221415Z AUTO 33031G36KT 1/2SM -SN FG 00/M01 A2965 RMK AO2 PK WND
                 33036/1415 SNB03 FZRANO =
2018-01-22 08:11 METAR KHYS 221411Z AUTO 33024G32KT 1SM -SN BR 00/M01 A2965 RMK AO2 PK WND
                 33032/1411 SNB03 FZRANO =
2018-01-22 07:56 METAR KHYS 221356Z AUTO RMK AO2 SNEMM SLPNO P0000 PWINO FZRANO $ =
2018-01-22 07:01 METAR KHYS 221301Z AUTO 00/M01 RMK AO2 SNEMM P0000 PWINO FZRANO $ =
2018-01-22 06:56 METAR KHYS 221256Z AUTO 33026G34KT 2SM -SN BR SCT007 OVC016 00/M01 A2962 RMK AO2
                 PK WND 33036/1242 VIS 1 1/4V5 SLP042 P0000 T00001011 FZRANO =
2018-01-22 06:49 METAR KHYS 221249Z AUTO 33027G36KT 1 1/4SM -SN BR BKN007 OVC016 00/M01 A2961 RMK
                 AO2 PK WND 33036/1242 VIS 3/4V2 CIG 005V010 P0000 FZRANO =
2018-01-22 06:41 METAR KHYS 221241Z AUTO 33029G35KT 3/4SM -SN BR OVC007 00/M01 A2960 RMK AO2 CIG
                 005V010 P0000 FZRANO =
2018-01-22 06:33 METAR KHYS 221233Z AUTO 33027G31KT 1/2SM SN FG OVC007 00/M01 A2960 RMK AO2 P0000
                 FZRANO =
2018-01-22 06:26 METAR KHYS 221226Z AUTO 1SM -SN BR OVC007 00/M01 A2960 RMK AO2 P0000 FZRANO =

Support USWX by starting your Amazon purchase here.